Time;durP1;ratioP1;P1;durP2;ratioP2;P2;SDS_P1;SDS_P2;PMS_P1;PMS_P2;Temp;Humidity;BMP_temperature;BMP_pressure;BME280_temperature;BME280_humidity;BME280_pressure;Samples;Min_cycle;Max_cycle;Signal;HPM_P1;HPM_P2
2021/08/14 00:01:55;;;;;;;;;;;;;;;12.98;90.90;100679.97;5114422;28;19927;-77
2021/08/14 00:04:21;;;;;;;;;;;;;;;13.18;92.05;100687.31;5114365;28;19946;-77
2021/08/14 00:06:48;;;;;;;;;;;;;;;13.08;91.06;100679.25;5114644;28;19931;-77
2021/08/14 00:09:15;;;;;;;;;;;;;;;13.05;91.36;100676.00;5114319;28;19924;-77
2021/08/14 00:11:41;;;;;;;;;;;;;;;13.13;91.67;100675.47;5114462;28;19928;-78
2021/08/14 00:14:09;;;;;;;;;;;;;;;13.05;91.89;100663.78;5113990;28;20370;-78
2021/08/14 00:16:36;;;;;;;;;;;;;;;13.04;92.43;100674.31;5114079;28;19928;-77
2021/08/14 00:19:02;;;;;;;;;;;;;;;13.05;90.82;100674.22;5114319;28;19924;-77
2021/08/14 00:21:30;;;;;;;;;;;;;;;13.06;90.94;100660.22;5114080;28;19924;-78
2021/08/14 00:23:57;;;;;;;;;;;;;;;12.95;91.46;100667.94;5113776;28;20386;-77
2021/08/14 00:26:23;;;;;;;;;;;;;;;12.98;91.23;100666.91;5114071;28;19924;-78
2021/08/14 00:28:50;;;;;;;;;;;;;;;13.01;91.78;100675.34;5113746;28;19924;-77
2021/08/14 00:31:19;;;;;;;;;;;;;;;12.99;90.98;100660.72;5113612;28;19924;-77
2021/08/14 00:33:45;;;;;;;;;;;;;;;13.17;91.03;100666.50;5114053;28;19935;-77
2021/08/14 00:36:12;;;;;;;;;;;;;;;13.33;90.50;100669.78;5113766;28;19924;-78
2021/08/14 00:38:39;;;;;;;;;;;;;;;13.34;90.36;100663.63;5113976;28;19924;-77
2021/08/14 00:41:05;;;;;;;;;;;;;;;13.33;89.58;100666.31;5113284;28;19928;-76
2021/08/14 00:43:32;;;;;;;;;;;;;;;13.23;89.19;100664.31;5113690;28;19924;-77
2021/08/14 00:45:59;;;;;;;;;;;;;;;13.37;89.01;100663.41;5113453;28;20631;-77
2021/08/14 00:48:27;;;;;;;;;;;;;;;13.50;89.02;100655.56;5113445;28;20298;-77
2021/08/14 00:50:54;;;;;;;;;;;;;;;13.76;88.45;100652.94;5113845;28;19932;-77
2021/08/14 00:53:21;;;;;;;;;;;;;;;13.76;88.38;100651.13;5113149;28;19924;-78
2021/08/14 00:55:48;;;;;;;;;;;;;;;13.91;88.15;100650.06;5113707;28;19924;-78
2021/08/14 00:58:15;;;;;;;;;;;;;;;13.81;88.79;100650.81;5113271;28;19931;-78
2021/08/14 01:00:41;;;;;;;;;;;;;;;13.83;88.14;100654.16;5113346;28;19928;-78
2021/08/14 01:03:08;;;;;;;;;;;;;;;13.91;88.07;100652.69;5113616;28;19924;-78
2021/08/14 01:05:38;;;;;;;;;;;;;;;13.77;88.63;100650.22;5113279;28;19924;-77
2021/08/14 01:08:04;;;;;;;;;;;;;;;13.84;88.59;100648.81;5113270;28;19923;-78
2021/08/14 01:10:32;;;;;;;;;;;;;;;13.82;89.18;100645.50;5113082;28;19924;-77
2021/08/14 01:12:59;;;;;;;;;;;;;;;13.79;88.73;100644.84;5113264;28;20274;-77
2021/08/14 01:15:26;;;;;;;;;;;;;;;13.91;88.28;100641.38;5112817;28;19934;-78
2021/08/14 01:17:53;;;;;;;;;;;;;;;14.13;87.50;100646.78;5113086;28;20293;-77
2021/08/14 01:20:19;;;;;;;;;;;;;;;13.93;87.90;100634.28;5112997;28;19931;-77
2021/08/14 01:22:47;;;;;;;;;;;;;;;13.81;88.48;100635.97;5113441;28;20270;-76
2021/08/14 01:25:14;;;;;;;;;;;;;;;14.00;88.24;100626.81;5112637;28;19924;-77
2021/08/14 01:27:42;;;;;;;;;;;;;;;13.96;88.27;100628.81;5112919;28;19934;-78
2021/08/14 01:30:09;;;;;;;;;;;;;;;13.86;89.13;100630.41;5113245;28;19931;-78
2021/08/14 01:32:37;;;;;;;;;;;;;;;13.77;89.46;100625.81;5112812;28;19932;-78
2021/08/14 01:35:04;;;;;;;;;;;;;;;13.73;89.80;100626.03;5113116;28;19930;-78
2021/08/14 01:37:31;;;;;;;;;;;;;;;14.01;88.75;100628.50;5112509;28;20301;-78
2021/08/14 01:39:58;;;;;;;;;;;;;;;13.82;89.32;100626.34;5112808;28;19931;-78
2021/08/14 01:42:24;;;;;;;;;;;;;;;14.05;88.21;100620.31;5112875;28;19924;-78
2021/08/14 01:44:53;;;;;;;;;;;;;;;13.87;88.88;100622.47;5112634;28;19934;-78
2021/08/14 01:47:20;;;;;;;;;;;;;;;13.90;88.63;100614.41;5112819;28;19924;-78
2021/08/14 01:49:46;;;;;;;;;;;;;;;13.78;89.36;100619.66;5113036;28;19935;-78
2021/08/14 01:52:14;;;;;;;;;;;;;;;13.75;89.73;100619.88;5112724;28;20022;-77
2021/08/14 01:54:40;;;;;;;;;;;;;;;13.76;89.74;100619.75;5116960;28;19931;-78
2021/08/14 01:57:07;;;;;;;;;;;;;;;14.00;89.13;100616.34;5117084;28;19924;-78
2021/08/14 01:59:34;;;;;;;;;;;;;;;14.13;88.39;100619.78;5116772;28;19924;-78
2021/08/14 02:02:02;;;;;;;;;;;;;;;14.07;88.72;100614.97;5117045;28;19924;-78
2021/08/14 02:04:29;;;;;;;;;;;;;;;14.05;88.89;100612.47;5116790;28;19946;-78
2021/08/14 02:06:56;;;;;;;;;;;;;;;13.88;89.33;100618.06;5116535;28;19924;-78
2021/08/14 02:09:22;;;;;;;;;;;;;;;13.89;89.65;100607.47;5116558;28;19924;-78
2021/08/14 02:11:49;;;;;;;;;;;;;;;13.70;90.33;100607.13;5116582;28;19934;-78
2021/08/14 02:14:16;;;;;;;;;;;;;;;13.81;90.26;100611.59;5116174;28;19931;-78
2021/08/14 02:16:43;;;;;;;;;;;;;;;13.69;91.03;100611.53;5116569;28;20385;-78
2021/08/14 02:19:11;;;;;;;;;;;;;;;13.72;91.17;100616.53;5116758;28;19924;-78
2021/08/14 02:21:37;;;;;;;;;;;;;;;13.67;91.23;100609.97;5116532;28;19924;-78
2021/08/14 02:24:04;;;;;;;;;;;;;;;13.68;91.25;100603.78;5116454;28;19930;-78
2021/08/14 02:26:31;;;;;;;;;;;;;;;13.78;91.16;100606.59;5116075;28;19935;-78
2021/08/14 02:28:57;;;;;;;;;;;;;;;13.93;90.78;100598.47;5116234;28;20293;-78
2021/08/14 02:31:24;;;;;;;;;;;;;;;13.99;90.64;100599.00;5116103;28;19924;-78
2021/08/14 02:33:52;;;;;;;;;;;;;;;14.07;90.82;100601.88;5116125;28;19931;-78
2021/08/14 02:36:20;;;;;;;;;;;;;;;14.18;90.49;100601.09;5115816;28;19931;-78
2021/08/14 02:38:46;;;;;;;;;;;;;;;14.37;89.33;100604.88;5116046;28;19927;-78
2021/08/14 02:41:13;;;;;;;;;;;;;;;14.49;89.56;100600.56;5115599;28;20378;-78
2021/08/14 02:43:40;;;;;;;;;;;;;;;14.46;90.06;100606.00;5115958;28;19931;-78
2021/08/14 02:46:06;;;;;;;;;;;;;;;14.62;90.16;100604.88;5115757;28;19928;-78
2021/08/14 02:48:33;;;;;;;;;;;;;;;14.48;90.43;100603.28;5115651;28;20295;-78
2021/08/14 02:51:00;;;;;;;;;;;;;;;14.52;90.42;100607.34;5116048;28;19924;-78
2021/08/14 02:53:28;;;;;;;;;;;;;;;14.58;90.22;100604.28;5115549;28;20435;-78
2021/08/14 02:55:55;;;;;;;;;;;;;;;14.58;89.90;100597.25;5115923;28;19924;-78
2021/08/14 02:58:21;;;;;;;;;;;;;;;14.53;90.36;100593.31;5115756;28;19923;-78
2021/08/14 03:00:48;;;;;;;;;;;;;;;14.59;90.42;100590.25;5115683;28;20373;-78
2021/08/14 03:03:15;;;;;;;;;;;;;;;14.58;90.36;100584.19;5115663;28;19930;-79
2021/08/14 03:05:41;;;;;;;;;;;;;;;14.83;89.94;100590.22;5114715;28;19928;-78
2021/08/14 03:08:09;;;;;;;;;;;;;;;14.91;89.06;100589.63;5115832;28;19924;-78
2021/08/14 03:10:37;;;;;;;;;;;;;;;14.88;89.06;100582.84;5115842;28;19924;-78
2021/08/14 03:13:03;;;;;;;;;;;;;;;14.79;89.50;100581.72;5115722;28;19931;-79
2021/08/14 03:15:30;;;;;;;;;;;;;;;14.86;89.39;100582.09;5114945;28;20052;-78
2021/08/14 03:17:56;;;;;;;;;;;;;;;14.81;89.84;100584.25;5115294;28;19935;-79
2021/08/14 03:20:23;;;;;;;;;;;;;;;14.82;89.93;100583.28;5115203;28;19924;-79
2021/08/14 03:22:50;;;;;;;;;;;;;;;14.87;89.75;100585.56;5115214;28;19924;-78
2021/08/14 03:25:16;;;;;;;;;;;;;;;14.84;90.00;100580.56;5114770;28;20389;-78
2021/08/14 03:27:44;;;;;;;;;;;;;;;14.92;90.05;100580.81;5115435;28;19924;-79
2021/08/14 03:30:14;;;;;;;;;;;;;;;14.84;90.47;100586.63;5114720;28;19930;-79
2021/08/14 03:32:40;;;;;;;;;;;;;;;14.83;90.20;100582.34;5115005;28;19928;-79
2021/08/14 03:35:08;;;;;;;;;;;;;;;14.91;90.14;100584.38;5115079;28;19943;-78
2021/08/14 03:37:34;;;;;;;;;;;;;;;14.75;90.57;100571.63;5114682;28;19931;-79
2021/08/14 03:40:01;;;;;;;;;;;;;;;14.89;90.19;100571.41;5114872;28;20431;-79
2021/08/14 03:42:27;;;;;;;;;;;;;;;15.07;89.71;100577.03;5114895;28;19924;-79
2021/08/14 03:44:55;;;;;;;;;;;;;;;15.10;89.21;100575.94;5114463;28;19930;-78
2021/08/14 03:47:22;;;;;;;;;;;;;;;15.04;89.46;100569.41;5114404;28;19924;-78
2021/08/14 03:49:48;;;;;;;;;;;;;;;14.89;89.70;100575.81;5114621;28;20309;-78
2021/08/14 03:52:15;;;;;;;;;;;;;;;14.82;90.16;100570.19;5114283;28;19930;-79
2021/08/14 03:54:43;;;;;;;;;;;;;;;14.89;89.71;100566.16;5114765;28;19935;-78
2021/08/14 03:57:10;;;;;;;;;;;;;;;14.90;89.22;100561.75;5114515;28;19931;-78
2021/08/14 03:59:36;;;;;;;;;;;;;;;14.81;89.11;100553.66;5114377;28;19931;-78
2021/08/14 04:02:04;;;;;;;;;;;;;;;14.89;88.97;100558.31;5114769;28;19931;-78
2021/08/14 04:04:31;;;;;;;;;;;;;;;14.78;89.18;100563.53;5114821;28;19928;-78
2021/08/14 04:06:58;;;;;;;;;;;;;;;14.62;89.55;100560.38;5114543;28;19930;-78
2021/08/14 04:09:24;;;;;;;;;;;;;;;14.67;88.89;100566.09;5114500;28;19923;-78
2021/08/14 04:11:51;;;;;;;;;;;;;;;14.63;89.16;100565.50;5114925;28;20328;-78
2021/08/14 04:14:17;;;;;;;;;;;;;;;14.62;89.48;100563.00;5114638;28;19924;-78
2021/08/14 04:16:44;;;;;;;;;;;;;;;14.53;89.50;100551.44;5113380;28;20316;-76
2021/08/14 04:19:12;;;;;;;;;;;;;;;14.31;90.38;100557.41;5114602;28;19924;-77
2021/08/14 04:21:39;;;;;;;;;;;;;;;14.44;89.65;100557.31;5114382;28;19963;-77
2021/08/14 04:24:06;;;;;;;;;;;;;;;14.48;88.55;100553.53;5114132;28;20266;-77
2021/08/14 04:26:32;;;;;;;;;;;;;;;14.44;89.44;100552.06;5113814;28;19927;-79
2021/08/14 04:28:59;;;;;;;;;;;;;;;14.46;89.40;100558.03;5114424;28;19924;-78
2021/08/14 04:31:25;;;;;;;;;;;;;;;14.46;89.92;100552.81;5114131;28;19923;-78
2021/08/14 04:33:52;;;;;;;;;;;;;;;14.44;90.05;100547.69;5114281;28;19923;-78
2021/08/14 04:36:20;;;;;;;;;;;;;;;14.38;89.79;100546.38;5113664;28;19923;-78
2021/08/14 04:38:48;;;;;;;;;;;;;;;14.46;89.84;100553.63;5113767;28;19927;-78
2021/08/14 04:41:14;;;;;;;;;;;;;;;14.46;89.32;100547.56;5113361;28;19924;-78
2021/08/14 04:43:41;;;;;;;;;;;;;;;14.50;89.12;100538.56;5113878;28;19924;-78
2021/08/14 04:46:08;;;;;;;;;;;;;;;14.45;88.84;100535.44;5114044;28;19927;-78
2021/08/14 04:48:34;;;;;;;;;;;;;;;14.56;88.20;100540.72;5113661;28;20386;-78
2021/08/14 04:51:01;;;;;;;;;;;;;;;14.48;88.58;100543.06;5113987;28;19931;-78
2021/08/14 04:53:29;;;;;;;;;;;;;;;14.40;89.16;100534.94;5113991;28;19928;-78
2021/08/14 04:55:55;;;;;;;;;;;;;;;14.55;87.42;100537.28;5114033;28;19924;-78
2021/08/14 04:58:22;;;;;;;;;;;;;;;14.62;86.72;100540.28;5114249;28;19931;-78
2021/08/14 05:00:48;;;;;;;;;;;;;;;14.45;87.67;100538.88;5114122;28;19930;-78
2021/08/14 05:03:16;;;;;;;;;;;;;;;14.57;87.67;100539.81;5113485;28;20382;-78
2021/08/14 05:05:43;;;;;;;;;;;;;;;14.58;86.99;100541.47;5114182;28;19930;-77
2021/08/14 05:08:09;;;;;;;;;;;;;;;14.73;86.94;100535.06;5114111;28;20022;-78
2021/08/14 05:10:37;;;;;;;;;;;;;;;14.51;87.69;100529.75;5113568;28;19931;-78
2021/08/14 05:13:05;;;;;;;;;;;;;;;14.68;87.02;100533.75;5113793;28;20305;-78
2021/08/14 05:15:31;;;;;;;;;;;;;;;14.74;86.76;100530.66;5113697;28;19981;-78
2021/08/14 05:17:58;;;;;;;;;;;;;;;14.74;86.25;100526.25;5113955;28;20381;-78
2021/08/14 05:20:25;;;;;;;;;;;;;;;14.89;85.68;100536.50;5113462;28;19931;-78
2021/08/14 05:22:51;;;;;;;;;;;;;;;14.86;86.14;100539.38;5113515;28;19931;-78
2021/08/14 05:25:18;;;;;;;;;;;;;;;14.77;86.14;100531.28;5113050;28;19939;-78
2021/08/14 05:27:46;;;;;;;;;;;;;;;14.96;86.31;100522.00;5112955;28;19924;-78
2021/08/14 05:30:13;;;;;;;;;;;;;;;14.98;85.85;100530.59;5112778;28;19924;-78
2021/08/14 05:32:39;;;;;;;;;;;;;;;15.09;85.36;100525.34;5113245;28;19939;-78
2021/08/14 05:35:07;;;;;;;;;;;;;;;15.14;84.61;100525.81;5112797;28;19931;-78
2021/08/14 05:37:33;;;;;;;;;;;;;;;15.17;84.83;100514.25;5112866;28;19923;-78
2021/08/14 05:40:00;;;;;;;;;;;;;;;15.33;84.36;100512.09;5112755;28;20408;-79
2021/08/14 05:42:27;;;;;;;;;;;;;;;15.44;83.45;100512.09;5112952;28;19923;-79
2021/08/14 05:44:55;;;;;;;;;;;;;;;15.42;84.11;100511.38;5112709;28;19924;-78
2021/08/14 05:47:21;;;;;;;;;;;;;;;15.45;83.70;100505.88;5112507;28;19930;-78
2021/08/14 05:49:48;;;;;;;;;;;;;;;15.51;83.77;100514.22;5112678;28;20421;-78
2021/08/14 05:52:15;;;;;;;;;;;;;;;15.55;83.11;100510.41;5112825;28;19924;-78
2021/08/14 05:54:41;;;;;;;;;;;;;;;15.59;83.48;100512.66;5112723;28;19924;-78
2021/08/14 05:57:08;;;;;;;;;;;;;;;15.63;83.37;100515.88;5116182;28;19924;-78
2021/08/14 05:59:34;;;;;;;;;;;;;;;15.72;83.93;100515.19;5112228;28;19923;-78
2021/08/14 06:02:02;;;;;;;;;;;;;;;15.66;83.72;100505.94;5112644;28;20305;-78
2021/08/14 06:04:29;;;;;;;;;;;;;;;15.87;82.58;100510.47;5112383;28;19934;-78
2021/08/14 06:06:55;;;;;;;;;;;;;;;16.00;82.15;100505.03;5112928;28;19946;-78
2021/08/14 06:09:22;;;;;;;;;;;;;;;15.99;82.47;100498.16;5112283;28;19924;-78
2021/08/14 06:11:49;;;;;;;;;;;;;;;16.01;81.89;100502.31;5112620;28;20377;-78
2021/08/14 06:14:15;;;;;;;;;;;;;;;16.07;81.57;100506.22;5112616;28;20020;-78
2021/08/14 06:16:42;;;;;;;;;;;;;;;16.09;81.66;100497.25;5112338;28;19935;-78
2021/08/14 06:19:10;;;;;;;;;;;;;;;16.18;81.20;100493.03;5112693;28;20292;-78
2021/08/14 06:21:36;;;;;;;;;;;;;;;16.16;81.50;100491.50;5112448;28;19975;-78
2021/08/14 06:24:03;;;;;;;;;;;;;;;16.28;81.67;100488.69;5112538;28;19946;-78
2021/08/14 06:26:30;;;;;;;;;;;;;;;16.40;81.50;100492.09;5112121;28;19924;-78
2021/08/14 06:28:56;;;;;;;;;;;;;;;16.43;80.25;100486.56;5112704;28;19930;-78
2021/08/14 06:31:23;;;;;;;;;;;;;;;16.51;80.05;100481.50;5111959;28;19930;-78
2021/08/14 06:33:49;;;;;;;;;;;;;;;16.56;80.59;100483.75;5112289;28;19938;-78
2021/08/14 06:36:17;;;;;;;;;;;;;;;16.65;80.63;100476.91;5112309;28;19924;-78
2021/08/14 06:38:44;;;;;;;;;;;;;;;16.75;78.18;100477.78;5112644;28;19961;-78
2021/08/14 06:41:10;;;;;;;;;;;;;;;16.89;77.37;100481.88;5115693;28;19930;-78
2021/08/14 06:43:37;;;;;;;;;;;;;;;17.02;77.05;100476.41;5116280;28;20331;-78
2021/08/14 06:46:04;;;;;;;;;;;;;;;17.06;76.01;100476.00;5116038;28;19923;-78
2021/08/14 06:48:33;;;;;;;;;;;;;;;17.14;76.96;100477.97;5115649;28;20374;-78
2021/08/14 06:51:00;;;;;;;;;;;;;;;17.20;75.73;100478.25;5115721;28;19924;-78
2021/08/14 06:53:28;;;;;;;;;;;;;;;17.26;76.57;100476.06;5115547;28;20483;-78
2021/08/14 06:55:54;;;;;;;;;;;;;;;17.30;74.35;100480.91;5115676;28;19931;-78
2021/08/14 06:58:21;;;;;;;;;;;;;;;17.38;75.14;100477.63;5115322;28;20401;-78
2021/08/14 07:00:48;;;;;;;;;;;;;;;17.58;72.94;100468.78;5115981;28;19924;-78
2021/08/14 07:03:14;;;;;;;;;;;;;;;17.66;72.51;100469.91;5115408;28;20370;-78
2021/08/14 07:05:41;;;;;;;;;;;;;;;17.93;71.71;100462.22;5115763;28;19930;-78
2021/08/14 07:08:07;;;;;;;;;;;;;;;18.26;71.42;100453.03;5115473;28;19931;-78
2021/08/14 07:10:35;;;;;;;;;;;;;;;18.28;72.04;100458.97;5115550;28;19923;-78
2021/08/14 07:13:02;;;;;;;;;;;;;;;18.45;71.20;100467.13;5115575;28;19931;-78
2021/08/14 07:15:29;;;;;;;;;;;;;;;18.66;67.67;100453.75;5115214;28;19992;-78
2021/08/14 07:17:56;;;;;;;;;;;;;;;18.90;67.00;100451.44;5115787;28;20297;-78
2021/08/14 07:20:22;;;;;;;;;;;;;;;20.08;64.15;100454.16;5115681;28;19931;-77
2021/08/14 07:22:49;;;;;;;;;;;;;;;21.07;59.13;100449.31;5116122;28;19928;-78
2021/08/14 07:25:16;;;;;;;;;;;;;;;21.85;56.69;100444.69;5115313;28;19923;-77
2021/08/14 07:27:44;;;;;;;;;;;;;;;22.31;54.65;100440.53;5116920;28;20397;-77
2021/08/14 07:30:10;;;;;;;;;;;;;;;22.93;52.86;100436.38;5115550;28;20289;-78
2021/08/14 07:32:37;;;;;;;;;;;;;;;22.55;53.71;100441.47;5116184;28;19966;-78
2021/08/14 07:35:04;;;;;;;;;;;;;;;23.34;51.27;100437.03;5116182;28;19924;-78
2021/08/14 07:37:31;;;;;;;;;;;;;;;23.16;50.99;100431.16;5115782;28;19934;-78
2021/08/14 07:39:57;;;;;;;;;;;;;;;23.52;48.75;100436.75;5115582;28;19930;-78
2021/08/14 07:42:24;;;;;;;;;;;;;;;24.73;47.41;100429.69;5115400;28;20378;-79
2021/08/14 07:44:55;;;;;;;;;;;;;;;24.73;46.88;100429.69;5115466;28;19930;-78
2021/08/14 07:47:21;;;;;;;;;;;;;;;24.06;47.91;100428.72;5115199;28;20385;-79
2021/08/14 07:49:48;;;;;;;;;;;;;;;25.08;46.93;100424.63;5116235;28;19930;-74
2021/08/14 07:52:15;;;;;;;;;;;;;;;25.04;46.54;100424.13;5114772;28;19924;-77
2021/08/14 07:54:41;;;;;;;;;;;;;;;24.84;48.31;100417.75;5114962;28;19924;-78
2021/08/14 07:57:08;;;;;;;;;;;;;;;25.50;46.57;100415.84;5114524;28;19924;-73
2021/08/14 07:59:34;;;;;;;;;;;;;;;25.79;46.28;100409.59;5114235;28;20396;-75
2021/08/14 08:02:02;;;;;;;;;;;;;;;26.22;44.30;100411.34;5114786;28;19925;-75
2021/08/14 08:04:29;;;;;;;;;;;;;;;26.02;45.96;100406.72;5114482;28;19924;-75
2021/08/14 08:06:55;;;;;;;;;;;;;;;26.42;45.69;100404.28;5114204;28;20005;-75
2021/08/14 08:09:22;;;;;;;;;;;;;;;26.31;46.07;100404.00;5114388;28;19923;-75
2021/08/14 08:11:49;;;;;;;;;;;;;;;25.82;46.47;100401.19;5114625;28;19924;-72
2021/08/14 08:14:15;;;;;;;;;;;;;;;26.28;44.49;100402.56;5113974;28;19924;-72
2021/08/14 08:16:42;;;;;;;;;;;;;;;24.53;47.81;100393.03;5114336;28;19928;-72
2021/08/14 08:19:10;;;;;;;;;;;;;;;23.94;50.59;100389.47;5114444;28;19924;-73
2021/08/14 08:21:36;;;;;;;;;;;;;;;23.45;52.83;100390.66;5114391;28;19924;-73
2021/08/14 08:24:03;;;;;;;;;;;;;;;23.24;54.83;100388.66;5114053;28;19924;-72
2021/08/14 08:26:30;;;;;;;;;;;;;;;22.83;56.45;100387.00;5114077;28;19928;-74
2021/08/14 08:28:56;;;;;;;;;;;;;;;23.14;57.76;100388.88;5113761;28;19924;-75
2021/08/14 08:31:25;;;;;;;;;;;;;;;22.66;55.67;100387.25;5113685;28;20541;-73
2021/08/14 08:33:51;;;;;;;;;;;;;;;22.66;56.93;100377.50;5114124;28;19963;-74
2021/08/14 08:36:21;;;;;;;;;;;;;;;22.37;58.29;100384.22;5113490;28;19930;-73
2021/08/14 08:38:47;;;;;;;;;;;;;;;22.56;55.76;100379.53;5113997;28;19924;-73
2021/08/14 08:41:17;;;;;;;;;;;;;;;22.23;56.87;100386.75;5113752;28;19924;-73
2021/08/14 08:43:43;;;;;;;;;;;;;;;23.30;56.50;100380.00;5113832;28;19946;-73
2021/08/14 08:46:10;;;;;;;;;;;;;;;23.76;53.31;100374.66;5113859;28;19935;-73
2021/08/14 08:48:38;;;;;;;;;;;;;;;25.52;49.52;100368.56;5113599;28;20367;-73
2021/08/14 08:51:05;;;;;;;;;;;;;;;26.22;47.55;100374.03;5113343;28;19924;-73
2021/08/14 08:53:33;;;;;;;;;;;;;;;25.58;47.47;100372.28;5113468;28;19928;-73
2021/08/14 08:55:59;;;;;;;;;;;;;;;26.01;47.27;100372.25;5113340;28;19930;-73
2021/08/14 08:58:26;;;;;;;;;;;;;;;27.36;43.51;100360.13;5113135;28;20397;-73
2021/08/14 09:00:52;;;;;;;;;;;;;;;25.90;46.39;100370.13;5113159;28;19924;-73
2021/08/14 09:03:19;;;;;;;;;;;;;;;25.80;46.90;100371.25;5112543;28;20380;-73
2021/08/14 09:05:47;;;;;;;;;;;;;;;26.29;46.02;100366.88;5113262;28;19923;-73
2021/08/14 09:08:14;;;;;;;;;;;;;;;26.80;46.17;100360.38;5113210;28;19931;-73
2021/08/14 09:10:42;;;;;;;;;;;;;;;25.59;46.42;100357.97;5113199;28;19930;-73
2021/08/14 09:13:12;;;;;;;;;;;;;;;24.48;51.21;100355.53;5113276;28;19924;-72
2021/08/14 09:15:39;;;;;;;;;;;;;;;24.54;49.58;100354.78;5113391;28;20449;-74
2021/08/14 09:18:06;;;;;;;;;;;;;;;27.69;44.41;100353.94;5112920;28;19930;-73
2021/08/14 09:20:34;;;;;;;;;;;;;;;27.74;43.58;100349.63;5112803;28;19930;-72
2021/08/14 09:23:02;;;;;;;;;;;;;;;25.87;46.50;100347.38;5112898;28;19954;-72
2021/08/14 09:25:38;;;;;;;;;;;;;;;25.20;50.01;100344.09;5112671;28;19973;-72
2021/08/14 09:28:06;;;;;;;;;;;;;;;24.59;50.91;100337.47;5113286;28;19969;-72
2021/08/14 09:30:49;;;;;;;;;;;;;;;23.52;54.07;100335.84;5112549;28;19930;-72
2021/08/14 09:33:17;;;;;;;;;;;;;;;22.52;56.85;100341.09;5112963;28;19924;-72
2021/08/14 09:35:43;;;;;;;;;;;;;;;22.31;57.86;100333.72;5112835;28;19924;-72
2021/08/14 09:38:11;;;;;;;;;;;;;;;21.76;58.06;100337.97;5112755;28;20344;-72
2021/08/14 09:40:39;;;;;;;;;;;;;;;21.39;60.33;100335.81;5113115;28;19931;-72
2021/08/14 09:43:07;;;;;;;;;;;;;;;20.94;62.22;100342.34;5113094;28;19931;-72
2021/08/14 09:45:34;;;;;;;;;;;;;;;20.64;65.01;100341.91;5112341;28;20274;-72
2021/08/14 09:48:14;;;;;;;;;;;;;;;19.92;71.01;100351.91;5112759;28;19928;-72
2021/08/14 09:50:41;;;;;;;;;;;;;;;19.23;75.44;100346.34;5113095;28;19927;-72
2021/08/14 09:53:11;;;;;;;;;;;;;;;18.83;77.78;100342.34;5112730;28;20378;-78
2021/08/14 09:55:39;;;;;;;;;;;;;;;17.99;87.48;100340.56;5112637;28;19931;-78
2021/08/14 09:58:09;;;;;;;;;;;;;;;17.73;89.03;100337.69;5112802;28;19924;-78
2021/08/14 10:00:35;;;;;;;;;;;;;;;18.05;85.10;100334.72;5112427;28;20397;-80
2021/08/14 10:03:03;;;;;;;;;;;;;;;18.10;83.85;100336.09;5112603;28;20370;-76
2021/08/14 10:05:31;;;;;;;;;;;;;;;17.90;83.02;100338.78;5112746;28;19924;-74
2021/08/14 10:07:59;;;;;;;;;;;;;;;17.77;84.27;100346.94;5112491;28;19924;-78
2021/08/14 10:10:25;;;;;;;;;;;;;;;17.96;83.62;100340.03;5112571;28;20285;-78
2021/08/14 10:12:52;;;;;;;;;;;;;;;18.06;81.13;100331.13;5112571;28;19924;-78
2021/08/14 10:15:21;;;;;;;;;;;;;;;19.87;74.86;100338.34;5114059;28;19930;-78
2021/08/14 10:17:47;;;;;;;;;;;;;;;20.12;74.12;100316.38;5116249;28;20384;-76
2021/08/14 10:20:14;;;;;;;;;;;;;;;20.11;73.88;100313.88;5116104;28;19924;-76
2021/08/14 10:22:41;;;;;;;;;;;;;;;19.38;76.93;100308.91;5116597;28;19928;-76
2021/08/14 10:25:16;;;;;;;;;;;;;;;19.34;78.75;100303.94;5116189;28;20374;-76
2021/08/14 10:27:55;;;;;;;;;;;;;;;19.35;78.83;100304.78;5116479;28;20294;-76
2021/08/14 10:30:36;;;;;;;;;;;;;;;21.72;71.55;100304.84;5116344;28;19928;-76
2021/08/14 10:33:04;;;;;;;;;;;;;;;24.47;64.47;100307.84;5112659;28;19930;-77
2021/08/14 10:35:32;;;;;;;;;;;;;;;26.50;57.84;100302.75;5115987;28;19939;-77
2021/08/14 10:37:58;;;;;;;;;;;;;;;27.53;56.00;100291.88;5116082;28;19924;-77
2021/08/14 10:40:25;;;;;;;;;;;;;;;25.47;57.72;100295.59;5115737;28;19924;-77
2021/08/14 10:42:56;;;;;;;;;;;;;;;23.16;63.33;100291.34;5115909;28;20390;-77
2021/08/14 10:45:31;;;;;;;;;;;;;;;22.29;68.25;100288.84;5115793;28;20018;-75
2021/08/14 10:48:02;;;;;;;;;;;;;;;21.55;68.78;100282.84;5116226;28;19924;-74
2021/08/14 10:50:47;;;;;;;;;;;;;;;21.26;70.38;100278.88;5115855;28;19996;-73
2021/08/14 10:53:17;;;;;;;;;;;;;;;24.43;60.49;100277.28;5115650;28;19924;-73
2021/08/14 10:55:45;;;;;;;;;;;;;;;24.75;58.94;100268.88;5116007;28;19930;-76
2021/08/14 10:58:18;;;;;;;;;;;;;;;26.90;49.76;100267.41;5115622;28;19934;-77
2021/08/14 11:00:45;;;;;;;;;;;;;;;26.31;54.67;100270.69;5115962;28;20286;-77
2021/08/14 11:03:12;;;;;;;;;;;;;;;27.42;51.00;100263.13;5115176;28;19928;-76
2021/08/14 11:05:40;;;;;;;;;;;;;;;29.52;45.13;100249.16;5115856;28;19924;-75
2021/08/14 11:08:21;;;;;;;;;;;;;;;28.04;47.15;100241.44;5115540;28;19931;-74
2021/08/14 11:10:49;;;;;;;;;;;;;;;29.06;44.37;100237.81;5115494;28;19931;-73
2021/08/14 11:13:34;;;;;;;;;;;;;;;27.78;48.27;100227.91;5115260;28;19924;-74
2021/08/14 11:16:01;;;;;;;;;;;;;;;29.43;43.43;100229.88;5115379;28;19927;-74
2021/08/14 11:18:42;;;;;;;;;;;;;;;29.86;41.92;100226.34;5115284;28;19931;-75
2021/08/14 11:21:09;;;;;;;;;;;;;;;31.03;40.44;100223.34;5114545;28;19983;-74
2021/08/14 11:23:36;;;;;;;;;;;;;;;31.89;39.70;100212.88;5115188;28;19967;-78
2021/08/14 11:26:04;;;;;;;;;;;;;;;32.69;37.12;100207.66;5114363;28;19924;-71
2021/08/14 11:28:31;;;;;;;;;;;;;;;32.06;38.91;100201.38;5115121;28;20298;-75
2021/08/14 11:30:58;;;;;;;;;;;;;;;28.92;42.14;100198.75;5115316;28;19924;-74
2021/08/14 11:33:26;;;;;;;;;;;;;;;28.52;45.54;100195.56;5114534;28;20370;-74
2021/08/14 11:36:03;;;;;;;;;;;;;;;26.43;48.86;100192.56;5114972;28;20400;-74
2021/08/14 11:38:33;;;;;;;;;;;;;;;25.51;53.62;100185.81;5114421;28;20365;-73
2021/08/14 11:41:00;;;;;;;;;;;;;;;24.68;54.75;100190.03;5115177;28;19931;-74
2021/08/14 11:43:37;;;;;;;;;;;;;;;23.99;57.77;100191.28;5114579;28;19923;-74
2021/08/14 11:46:04;;;;;;;;;;;;;;;23.29;60.59;100197.84;5114631;28;19923;-77
2021/08/14 11:48:37;;;;;;;;;;;;;;;22.79;62.44;100201.91;5114399;28;19923;-76
2021/08/14 11:51:04;;;;;;;;;;;;;;;22.64;64.26;100198.38;5114970;28;19924;-75
2021/08/14 11:53:31;;;;;;;;;;;;;;;22.42;66.66;100195.50;5114690;28;19977;-75
2021/08/14 11:56:03;;;;;;;;;;;;;;;20.19;100.00;100538.44;5114865;28;19923;-76
2021/08/14 11:58:31;;;;;;;;;;;;;;;18.04;100.00;100154.06;5114243;28;19923;-76
2021/08/14 12:00:58;;;;;;;;;;;;;;;-145.93;100.00;63033.56;5114402;28;19924;-77
2021/08/14 12:03:26;;;;;;;;;;;;;;;-145.93;100.00;63033.56;5114476;28;19930;-78
2021/08/14 12:05:53;;;;;;;;;;;;;;;-145.93;100.00;63033.56;5114642;28;19928;-75
2021/08/14 12:08:28;;;;;;;;;;;;;;;-145.93;100.00;63033.56;5114290;28;19946;-75
2021/08/14 12:10:54;;;;;;;;;;;;;;;-145.93;100.00;63033.56;5114213;28;19969;-76
2021/08/14 12:13:21;;;;;;;;;;;;;;;-145.93;100.00;63033.56;5113996;28;19924;-74
2021/08/14 12:15:49;;;;;;;;;;;;;;;-145.93;100.00;63033.56;5114524;28;19930;-76
2021/08/14 12:18:33;;;;;;;;;;;;;;;-145.93;100.00;63033.56;5114025;28;19930;-75
2021/08/14 12:21:00;;;;;;;;;;;;;;;-145.93;100.00;63033.56;5114017;28;19931;-75
2021/08/14 12:23:28;;;;;;;;;;;;;;;-145.93;100.00;63033.56;5113665;28;20278;-75
2021/08/14 12:25:55;;;;;;;;;;;;;;;-145.93;100.00;63033.56;5113875;28;20377;-75
2021/08/14 12:28:26;;;;;;;;;;;;;;;-145.93;100.00;63033.56;5113632;28;19924;-73
2021/08/14 12:30:54;;;;;;;;;;;;;;;-145.93;100.00;63033.56;5114198;28;19984;-78
2021/08/14 12:33:28;;;;;;;;;;;;;;;-145.93;100.00;63033.56;5113571;28;19930;-76
2021/08/14 12:35:57;;;;;;;;;;;;;;;-145.93;100.00;63033.56;5113374;28;20218;-75
2021/08/14 12:38:24;;;;;;;;;;;;;;;-145.93;100.00;63033.56;5112847;28;19934;-76